sensor_id;sensor_type;location;lat;lon;timestamp;P1;durP1;ratioP1;P2;durP2;ratioP2
58083;SDS011;43882;51.550;11.858;2023-04-01T00:00:28;10.75;;;3.03;;
58083;SDS011;43882;51.550;11.858;2023-04-01T00:02:54;12.07;;;2.80;;
58083;SDS011;43882;51.550;11.858;2023-04-01T00:05:20;10.85;;;2.80;;
58083;SDS011;43882;51.550;11.858;2023-04-01T00:07:49;9.43;;;2.60;;
58083;SDS011;43882;51.550;11.858;2023-04-01T00:10:16;8.95;;;2.63;;
58083;SDS011;43882;51.550;11.858;2023-04-01T00:12:42;11.00;;;2.70;;
58083;SDS011;43882;51.550;11.858;2023-04-01T00:15:09;11.98;;;2.78;;
58083;SDS011;43882;51.550;11.858;2023-04-01T00:17:36;11.63;;;2.92;;
58083;SDS011;43882;51.550;11.858;2023-04-01T00:20:03;11.80;;;2.90;;
58083;SDS011;43882;51.550;11.858;2023-04-01T00:22:30;11.65;;;2.90;;
58083;SDS011;43882;51.550;11.858;2023-04-01T00:24:56;12.73;;;2.38;;
58083;SDS011;43882;51.550;11.858;2023-04-01T00:27:22;13.38;;;3.00;;
58083;SDS011;43882;51.550;11.858;2023-04-01T00:29:48;11.30;;;2.60;;
58083;SDS011;43882;51.550;11.858;2023-04-01T00:32:14;14.07;;;2.90;;
58083;SDS011;43882;51.550;11.858;2023-04-01T00:34:41;10.75;;;2.67;;
58083;SDS011;43882;51.550;11.858;2023-04-01T00:37:07;10.68;;;2.70;;
58083;SDS011;43882;51.550;11.858;2023-04-01T00:39:34;11.57;;;2.92;;
58083;SDS011;43882;51.550;11.858;2023-04-01T00:42:01;9.90;;;2.63;;
58083;SDS011;43882;51.550;11.858;2023-04-01T00:44:32;15.23;;;3.00;;
58083;SDS011;43882;51.550;11.858;2023-04-01T00:46:59;11.95;;;3.20;;
58083;SDS011;43882;51.550;11.858;2023-04-01T00:49:27;16.05;;;3.65;;
58083;SDS011;43882;51.550;11.858;2023-04-01T00:51:55;15.70;;;3.53;;
58083;SDS011;43882;51.550;11.858;2023-04-01T00:54:24;18.23;;;4.50;;
58083;SDS011;43882;51.550;11.858;2023-04-01T00:57:12;19.90;;;5.68;;
58083;SDS011;43882;51.550;11.858;2023-04-01T00:59:49;17.73;;;4.60;;
58083;SDS011;43882;51.550;11.858;2023-04-01T01:02:17;22.30;;;6.18;;
58083;SDS011;43882;51.550;11.858;2023-04-01T01:04:44;16.38;;;4.35;;
58083;SDS011;43882;51.550;11.858;2023-04-01T01:10:26;12.33;;;2.93;;
58083;SDS011;43882;51.550;11.858;2023-04-01T01:15:46;12.20;;;2.80;;
58083;SDS011;43882;51.550;11.858;2023-04-01T01:21:20;13.73;;;2.97;;
58083;SDS011;43882;51.550;11.858;2023-04-01T01:34:50;11.32;;;2.50;;
58083;SDS011;43882;51.550;11.858;2023-04-01T01:40:05;13.73;;;2.65;;
58083;SDS011;43882;51.550;11.858;2023-04-01T01:42:33;9.10;;;2.40;;
58083;SDS011;43882;51.550;11.858;2023-04-01T01:45:02;10.65;;;2.60;;
58083;SDS011;43882;51.550;11.858;2023-04-01T01:47:30;11.55;;;2.67;;
58083;SDS011;43882;51.550;11.858;2023-04-01T01:49:57;8.98;;;2.55;;
58083;SDS011;43882;51.550;11.858;2023-04-01T01:52:26;10.65;;;2.50;;
58083;SDS011;43882;51.550;11.858;2023-04-01T01:54:54;11.10;;;2.50;;
58083;SDS011;43882;51.550;11.858;2023-04-01T01:57:26;10.60;;;2.50;;
58083;SDS011;43882;51.550;11.858;2023-04-01T01:59:56;13.93;;;2.88;;
58083;SDS011;43882;51.550;11.858;2023-04-01T02:02:26;11.73;;;2.60;;
58083;SDS011;43882;51.550;11.858;2023-04-01T02:04:56;10.98;;;2.70;;
58083;SDS011;43882;51.550;11.858;2023-04-01T02:07:28;8.63;;;2.38;;
58083;SDS011;43882;51.550;11.858;2023-04-01T02:09:56;11.25;;;2.70;;
58083;SDS011;43882;51.550;11.858;2023-04-01T02:12:22;12.02;;;3.00;;
58083;SDS011;43882;51.550;11.858;2023-04-01T02:14:53;17.00;;;4.28;;
58083;SDS011;43882;51.550;11.858;2023-04-01T02:17:25;15.43;;;3.45;;
58083;SDS011;43882;51.550;11.858;2023-04-01T02:19:53;13.68;;;3.05;;
58083;SDS011;43882;51.550;11.858;2023-04-01T02:22:24;11.45;;;2.80;;
58083;SDS011;43882;51.550;11.858;2023-04-01T02:24:55;10.65;;;3.03;;
58083;SDS011;43882;51.550;11.858;2023-04-01T02:27:25;9.60;;;2.72;;
58083;SDS011;43882;51.550;11.858;2023-04-01T02:29:51;13.90;;;3.22;;
58083;SDS011;43882;51.550;11.858;2023-04-01T02:32:18;14.32;;;3.20;;
58083;SDS011;43882;51.550;11.858;2023-04-01T02:34:45;12.40;;;3.58;;
58083;SDS011;43882;51.550;11.858;2023-04-01T02:37:12;11.65;;;2.90;;
58083;SDS011;43882;51.550;11.858;2023-04-01T02:39:39;13.75;;;3.25;;
58083;SDS011;43882;51.550;11.858;2023-04-01T02:42:05;14.15;;;3.70;;
58083;SDS011;43882;51.550;11.858;2023-04-01T02:44:31;12.32;;;2.90;;
58083;SDS011;43882;51.550;11.858;2023-04-01T02:46:57;13.60;;;3.20;;
58083;SDS011;43882;51.550;11.858;2023-04-01T02:49:23;12.93;;;2.90;;
58083;SDS011;43882;51.550;11.858;2023-04-01T02:51:49;12.02;;;3.00;;
58083;SDS011;43882;51.550;11.858;2023-04-01T02:54:16;13.57;;;3.35;;
58083;SDS011;43882;51.550;11.858;2023-04-01T02:56:43;21.65;;;6.25;;
58083;SDS011;43882;51.550;11.858;2023-04-01T02:59:10;22.13;;;5.88;;
58083;SDS011;43882;51.550;11.858;2023-04-01T03:01:36;21.42;;;5.50;;
58083;SDS011;43882;51.550;11.858;2023-04-01T03:04:03;18.73;;;5.22;;
58083;SDS011;43882;51.550;11.858;2023-04-01T03:06:29;13.82;;;3.50;;
58083;SDS011;43882;51.550;11.858;2023-04-01T03:08:55;12.07;;;3.33;;
58083;SDS011;43882;51.550;11.858;2023-04-01T03:11:21;12.73;;;2.67;;
58083;SDS011;43882;51.550;11.858;2023-04-01T03:13:48;13.43;;;2.65;;
58083;SDS011;43882;51.550;11.858;2023-04-01T03:16:14;13.40;;;2.97;;
58083;SDS011;43882;51.550;11.858;2023-04-01T03:18:40;9.10;;;2.80;;
58083;SDS011;43882;51.550;11.858;2023-04-01T03:21:13;13.85;;;2.90;;
58083;SDS011;43882;51.550;11.858;2023-04-01T03:23:44;13.55;;;2.67;;
58083;SDS011;43882;51.550;11.858;2023-04-01T03:26:10;15.20;;;3.30;;
58083;SDS011;43882;51.550;11.858;2023-04-01T03:28:36;15.32;;;3.15;;
58083;SDS011;43882;51.550;11.858;2023-04-01T03:31:03;14.40;;;3.13;;
58083;SDS011;43882;51.550;11.858;2023-04-01T03:33:30;11.35;;;2.70;;
58083;SDS011;43882;51.550;11.858;2023-04-01T03:35:56;13.15;;;2.92;;
58083;SDS011;43882;51.550;11.858;2023-04-01T03:38:22;13.90;;;3.00;;
58083;SDS011;43882;51.550;11.858;2023-04-01T03:40:48;12.80;;;2.67;;
58083;SDS011;43882;51.550;11.858;2023-04-01T03:43:15;9.27;;;2.47;;
58083;SDS011;43882;51.550;11.858;2023-04-01T03:45:48;11.18;;;2.47;;
58083;SDS011;43882;51.550;11.858;2023-04-01T03:48:15;10.35;;;2.50;;
58083;SDS011;43882;51.550;11.858;2023-04-01T03:50:41;8.98;;;2.47;;
58083;SDS011;43882;51.550;11.858;2023-04-01T03:53:08;10.23;;;2.65;;
58083;SDS011;43882;51.550;11.858;2023-04-01T03:55:38;8.38;;;2.45;;
58083;SDS011;43882;51.550;11.858;2023-04-01T03:58:05;12.75;;;2.80;;
58083;SDS011;43882;51.550;11.858;2023-04-01T04:00:31;11.20;;;2.80;;
58083;SDS011;43882;51.550;11.858;2023-04-01T04:02:57;12.13;;;2.80;;
58083;SDS011;43882;51.550;11.858;2023-04-01T04:05:24;10.20;;;2.80;;
58083;SDS011;43882;51.550;11.858;2023-04-01T04:07:51;8.02;;;2.42;;
58083;SDS011;43882;51.550;11.858;2023-04-01T04:10:17;12.32;;;2.67;;
58083;SDS011;43882;51.550;11.858;2023-04-01T04:12:44;9.82;;;2.70;;
58083;SDS011;43882;51.550;11.858;2023-04-01T04:15:10;12.48;;;2.80;;
58083;SDS011;43882;51.550;11.858;2023-04-01T04:17:37;8.95;;;2.42;;
58083;SDS011;43882;51.550;11.858;2023-04-01T04:20:03;10.25;;;2.60;;
58083;SDS011;43882;51.550;11.858;2023-04-01T04:22:30;11.60;;;2.80;;
58083;SDS011;43882;51.550;11.858;2023-04-01T04:24:56;10.65;;;2.70;;
58083;SDS011;43882;51.550;11.858;2023-04-01T04:27:22;13.70;;;2.88;;
58083;SDS011;43882;51.550;11.858;2023-04-01T04:29:48;10.70;;;2.63;;
58083;SDS011;43882;51.550;11.858;2023-04-01T04:32:14;10.27;;;2.53;;
58083;SDS011;43882;51.550;11.858;2023-04-01T04:34:40;11.85;;;2.60;;
58083;SDS011;43882;51.550;11.858;2023-04-01T04:37:06;12.70;;;3.00;;
58083;SDS011;43882;51.550;11.858;2023-04-01T04:39:32;12.70;;;3.20;;
58083;SDS011;43882;51.550;11.858;2023-04-01T04:41:58;11.20;;;2.97;;
58083;SDS011;43882;51.550;11.858;2023-04-01T04:44:24;9.20;;;2.53;;
58083;SDS011;43882;51.550;11.858;2023-04-01T04:46:50;10.75;;;2.67;;
58083;SDS011;43882;51.550;11.858;2023-04-01T04:49:17;10.68;;;2.88;;
58083;SDS011;43882;51.550;11.858;2023-04-01T04:51:43;11.98;;;2.60;;
58083;SDS011;43882;51.550;11.858;2023-04-01T04:54:09;9.88;;;2.53;;
58083;SDS011;43882;51.550;11.858;2023-04-01T04:56:35;9.68;;;2.83;;
58083;SDS011;43882;51.550;11.858;2023-04-01T04:59:01;10.25;;;2.50;;
58083;SDS011;43882;51.550;11.858;2023-04-01T05:01:28;10.18;;;2.70;;
58083;SDS011;43882;51.550;11.858;2023-04-01T05:03:54;9.30;;;2.17;;
58083;SDS011;43882;51.550;11.858;2023-04-01T05:06:20;7.38;;;2.30;;
58083;SDS011;43882;51.550;11.858;2023-04-01T05:08:46;9.52;;;2.78;;
58083;SDS011;43882;51.550;11.858;2023-04-01T05:11:14;10.60;;;2.42;;
58083;SDS011;43882;51.550;11.858;2023-04-01T05:13:41;10.68;;;2.70;;
58083;SDS011;43882;51.550;11.858;2023-04-01T05:16:08;9.75;;;2.45;;
58083;SDS011;43882;51.550;11.858;2023-04-01T05:18:35;10.90;;;2.60;;
58083;SDS011;43882;51.550;11.858;2023-04-01T05:21:01;8.60;;;2.25;;
58083;SDS011;43882;51.550;11.858;2023-04-01T05:23:27;12.75;;;3.00;;
58083;SDS011;43882;51.550;11.858;2023-04-01T05:25:53;16.48;;;4.25;;
58083;SDS011;43882;51.550;11.858;2023-04-01T05:28:21;12.93;;;3.30;;
58083;SDS011;43882;51.550;11.858;2023-04-01T05:30:48;11.40;;;2.92;;
58083;SDS011;43882;51.550;11.858;2023-04-01T05:33:14;14.73;;;3.50;;
58083;SDS011;43882;51.550;11.858;2023-04-01T05:35:40;14.45;;;4.50;;
58083;SDS011;43882;51.550;11.858;2023-04-01T05:38:06;23.77;;;7.97;;
58083;SDS011;43882;51.550;11.858;2023-04-01T05:40:33;29.52;;;8.82;;
58083;SDS011;43882;51.550;11.858;2023-04-01T05:42:59;33.05;;;8.68;;
58083;SDS011;43882;51.550;11.858;2023-04-01T05:45:25;19.52;;;4.93;;
58083;SDS011;43882;51.550;11.858;2023-04-01T05:47:52;16.17;;;3.95;;
58083;SDS011;43882;51.550;11.858;2023-04-01T05:50:18;11.82;;;3.20;;
58083;SDS011;43882;51.550;11.858;2023-04-01T05:52:44;9.27;;;2.72;;
58083;SDS011;43882;51.550;11.858;2023-04-01T05:55:10;12.13;;;3.10;;
58083;SDS011;43882;51.550;11.858;2023-04-01T05:57:37;12.50;;;2.88;;
58083;SDS011;43882;51.550;11.858;2023-04-01T06:00:03;11.23;;;3.08;;
58083;SDS011;43882;51.550;11.858;2023-04-01T06:02:30;13.18;;;2.80;;
58083;SDS011;43882;51.550;11.858;2023-04-01T06:05:08;13.60;;;3.10;;
58083;SDS011;43882;51.550;11.858;2023-04-01T06:07:43;14.07;;;2.90;;
58083;SDS011;43882;51.550;11.858;2023-04-01T06:10:11;13.52;;;3.00;;
58083;SDS011;43882;51.550;11.858;2023-04-01T06:18:03;9.73;;;2.47;;
58083;SDS011;43882;51.550;11.858;2023-04-01T06:31:39;13.02;;;2.72;;
58083;SDS011;43882;51.550;11.858;2023-04-01T06:34:23;8.43;;;2.67;;
58083;SDS011;43882;51.550;11.858;2023-04-01T06:39:54;8.27;;;2.35;;
58083;SDS011;43882;51.550;11.858;2023-04-01T06:51:08;8.73;;;2.13;;
58083;SDS011;43882;51.550;11.858;2023-04-01T06:53:42;9.32;;;2.03;;
58083;SDS011;43882;51.550;11.858;2023-04-01T06:56:23;11.20;;;2.25;;
58083;SDS011;43882;51.550;11.858;2023-04-01T06:59:05;8.40;;;2.25;;
58083;SDS011;43882;51.550;11.858;2023-04-01T07:01:41;8.13;;;2.03;;
58083;SDS011;43882;51.550;11.858;2023-04-01T07:06:59;8.70;;;2.30;;
58083;SDS011;43882;51.550;11.858;2023-04-01T07:09:41;6.70;;;2.10;;
58083;SDS011;43882;51.550;11.858;2023-04-01T07:12:18;9.00;;;2.30;;
58083;SDS011;43882;51.550;11.858;2023-04-01T07:14:57;8.15;;;2.00;;
58083;SDS011;43882;51.550;11.858;2023-04-01T07:17:33;10.10;;;2.20;;
58083;SDS011;43882;51.550;11.858;2023-04-01T07:20:03;8.48;;;2.10;;
58083;SDS011;43882;51.550;11.858;2023-04-01T07:22:52;8.88;;;2.10;;
58083;SDS011;43882;51.550;11.858;2023-04-01T07:25:43;11.02;;;2.72;;
58083;SDS011;43882;51.550;11.858;2023-04-01T07:28:14;10.38;;;2.10;;
58083;SDS011;43882;51.550;11.858;2023-04-01T07:30:49;8.85;;;2.17;;
58083;SDS011;43882;51.550;11.858;2023-04-01T07:36:32;11.50;;;2.50;;
58083;SDS011;43882;51.550;11.858;2023-04-01T07:39:30;8.38;;;2.20;;
58083;SDS011;43882;51.550;11.858;2023-04-01T07:42:09;10.32;;;2.33;;
58083;SDS011;43882;51.550;11.858;2023-04-01T07:50:43;6.80;;;1.98;;
58083;SDS011;43882;51.550;11.858;2023-04-01T07:53:38;8.18;;;2.08;;
58083;SDS011;43882;51.550;11.858;2023-04-01T07:56:12;7.25;;;2.58;;
58083;SDS011;43882;51.550;11.858;2023-04-01T08:01:31;7.55;;;2.10;;
58083;SDS011;43882;51.550;11.858;2023-04-01T08:06:51;10.43;;;2.47;;
58083;SDS011;43882;51.550;11.858;2023-04-01T08:13:02;6.53;;;2.35;;
58083;SDS011;43882;51.550;11.858;2023-04-01T08:18:46;11.05;;;2.78;;
58083;SDS011;43882;51.550;11.858;2023-04-01T08:21:17;7.50;;;2.03;;
58083;SDS011;43882;51.550;11.858;2023-04-01T08:23:55;6.65;;;1.80;;
58083;SDS011;43882;51.550;11.858;2023-04-01T08:26:26;6.30;;;2.10;;
58083;SDS011;43882;51.550;11.858;2023-04-01T08:32:05;6.38;;;2.30;;
58083;SDS011;43882;51.550;11.858;2023-04-01T08:34:43;8.77;;;2.40;;
58083;SDS011;43882;51.550;11.858;2023-04-01T08:37:17;10.27;;;2.72;;
58083;SDS011;43882;51.550;11.858;2023-04-01T08:39:58;9.75;;;2.95;;
58083;SDS011;43882;51.550;11.858;2023-04-01T08:45:53;10.05;;;2.80;;
58083;SDS011;43882;51.550;11.858;2023-04-01T09:04:57;15.65;;;4.70;;
58083;SDS011;43882;51.550;11.858;2023-04-01T09:10:42;20.33;;;9.45;;
58083;SDS011;43882;51.550;11.858;2023-04-01T09:13:36;14.10;;;4.20;;
58083;SDS011;43882;51.550;11.858;2023-04-01T09:19:33;11.10;;;2.50;;
58083;SDS011;43882;51.550;11.858;2023-04-01T09:25:01;5.65;;;1.60;;
58083;SDS011;43882;51.550;11.858;2023-04-01T09:27:56;6.07;;;2.00;;
58083;SDS011;43882;51.550;11.858;2023-04-01T09:36:30;6.78;;;1.83;;
58083;SDS011;43882;51.550;11.858;2023-04-01T09:39:09;7.15;;;1.80;;
58083;SDS011;43882;51.550;11.858;2023-04-01T09:42:14;10.30;;;2.47;;
58083;SDS011;43882;51.550;11.858;2023-04-01T09:45:01;7.85;;;2.15;;
58083;SDS011;43882;51.550;11.858;2023-04-01T10:04:31;7.88;;;1.77;;
58083;SDS011;43882;51.550;11.858;2023-04-01T10:24:24;3.40;;;1.13;;
58083;SDS011;43882;51.550;11.858;2023-04-01T10:27:21;4.07;;;1.15;;
58083;SDS011;43882;51.550;11.858;2023-04-01T10:38:41;6.18;;;1.52;;
58083;SDS011;43882;51.550;11.858;2023-04-01T10:46:54;7.30;;;1.80;;
58083;SDS011;43882;51.550;11.858;2023-04-01T10:49:54;2.65;;;1.10;;
58083;SDS011;43882;51.550;11.858;2023-04-01T10:52:59;4.05;;;1.27;;
58083;SDS011;43882;51.550;11.858;2023-04-01T11:04:23;3.80;;;1.20;;
58083;SDS011;43882;51.550;11.858;2023-04-01T11:10:19;7.00;;;1.60;;
58083;SDS011;43882;51.550;11.858;2023-04-01T11:15:59;7.00;;;1.43;;
58083;SDS011;43882;51.550;11.858;2023-04-01T11:24:13;8.45;;;2.20;;
58083;SDS011;43882;51.550;11.858;2023-04-01T11:27:03;4.00;;;1.30;;
58083;SDS011;43882;51.550;11.858;2023-04-01T11:40:46;7.00;;;1.70;;
58083;SDS011;43882;51.550;11.858;2023-04-01T11:43:34;5.07;;;1.20;;
58083;SDS011;43882;51.550;11.858;2023-04-01T11:49:21;6.20;;;1.73;;
58083;SDS011;43882;51.550;11.858;2023-04-01T11:52:14;5.35;;;1.38;;
58083;SDS011;43882;51.550;11.858;2023-04-01T11:55:12;3.63;;;1.35;;
58083;SDS011;43882;51.550;11.858;2023-04-01T12:09:17;6.32;;;1.45;;
58083;SDS011;43882;51.550;11.858;2023-04-01T12:17:03;3.90;;;1.40;;
58083;SDS011;43882;51.550;11.858;2023-04-01T12:20:02;4.22;;;1.40;;
58083;SDS011;43882;51.550;11.858;2023-04-01T12:22:48;3.88;;;1.45;;
58083;SDS011;43882;51.550;11.858;2023-04-01T12:30:53;4.10;;;1.40;;
58083;SDS011;43882;51.550;11.858;2023-04-01T12:41:51;8.25;;;1.80;;
58083;SDS011;43882;51.550;11.858;2023-04-01T12:52:55;3.50;;;1.48;;
58083;SDS011;43882;51.550;11.858;2023-04-01T12:55:46;8.43;;;2.10;;
58083;SDS011;43882;51.550;11.858;2023-04-01T12:58:34;12.15;;;2.00;;
58083;SDS011;43882;51.550;11.858;2023-04-01T13:01:25;7.50;;;1.55;;
58083;SDS011;43882;51.550;11.858;2023-04-01T13:07:09;5.32;;;1.73;;
58083;SDS011;43882;51.550;11.858;2023-04-01T13:10:00;5.90;;;1.60;;
58083;SDS011;43882;51.550;11.858;2023-04-01T13:15:45;3.72;;;1.88;;
58083;SDS011;43882;51.550;11.858;2023-04-01T13:18:20;3.38;;;1.70;;
58083;SDS011;43882;51.550;11.858;2023-04-01T13:21:00;5.00;;;1.83;;
58083;SDS011;43882;51.550;11.858;2023-04-01T13:23:56;6.57;;;2.05;;
58083;SDS011;43882;51.550;11.858;2023-04-01T13:26:50;9.95;;;2.40;;
58083;SDS011;43882;51.550;11.858;2023-04-01T13:29:39;7.57;;;2.17;;
58083;SDS011;43882;51.550;11.858;2023-04-01T13:32:25;9.55;;;2.50;;
58083;SDS011;43882;51.550;11.858;2023-04-01T13:35:10;9.18;;;2.38;;
58083;SDS011;43882;51.550;11.858;2023-04-01T13:37:42;6.82;;;2.25;;
58083;SDS011;43882;51.550;11.858;2023-04-01T13:43:24;8.27;;;2.35;;
58083;SDS011;43882;51.550;11.858;2023-04-01T13:48:32;5.17;;;2.00;;
58083;SDS011;43882;51.550;11.858;2023-04-01T14:00:10;8.52;;;2.40;;
58083;SDS011;43882;51.550;11.858;2023-04-01T14:05:35;10.90;;;2.50;;
58083;SDS011;43882;51.550;11.858;2023-04-01T14:13:58;8.50;;;2.20;;
58083;SDS011;43882;51.550;11.858;2023-04-01T14:27:35;7.25;;;2.30;;
58083;SDS011;43882;51.550;11.858;2023-04-01T14:35:41;9.48;;;2.50;;
58083;SDS011;43882;51.550;11.858;2023-04-01T14:41:40;6.75;;;2.45;;
58083;SDS011;43882;51.550;11.858;2023-04-01T14:49:36;19.60;;;12.55;;
58083;SDS011;43882;51.550;11.858;2023-04-01T14:52:11;14.10;;;5.57;;
58083;SDS011;43882;51.550;11.858;2023-04-01T14:54:47;9.52;;;2.50;;
58083;SDS011;43882;51.550;11.858;2023-04-01T14:57:27;13.43;;;4.72;;
58083;SDS011;43882;51.550;11.858;2023-04-01T15:02:50;7.47;;;2.03;;
58083;SDS011;43882;51.550;11.858;2023-04-01T15:05:27;10.90;;;3.63;;
58083;SDS011;43882;51.550;11.858;2023-04-01T15:13:39;7.13;;;2.20;;
58083;SDS011;43882;51.550;11.858;2023-04-01T15:16:23;9.93;;;2.40;;
58083;SDS011;43882;51.550;11.858;2023-04-01T15:21:43;9.57;;;2.78;;
58083;SDS011;43882;51.550;11.858;2023-04-01T15:26:50;11.73;;;3.53;;
58083;SDS011;43882;51.550;11.858;2023-04-01T15:43:45;11.50;;;3.00;;
58083;SDS011;43882;51.550;11.858;2023-04-01T15:46:24;8.93;;;2.40;;
58083;SDS011;43882;51.550;11.858;2023-04-01T15:57:40;7.80;;;2.50;;
58083;SDS011;43882;51.550;11.858;2023-04-01T16:02:49;15.15;;;2.40;;
58083;SDS011;43882;51.550;11.858;2023-04-01T16:05:29;9.35;;;2.30;;
58083;SDS011;43882;51.550;11.858;2023-04-01T16:08:22;7.28;;;2.05;;
58083;SDS011;43882;51.550;11.858;2023-04-01T16:16:44;9.93;;;2.70;;
58083;SDS011;43882;51.550;11.858;2023-04-01T16:21:59;22.90;;;8.48;;
58083;SDS011;43882;51.550;11.858;2023-04-01T16:24:39;18.13;;;6.55;;
58083;SDS011;43882;51.550;11.858;2023-04-01T16:32:50;13.68;;;4.97;;
58083;SDS011;43882;51.550;11.858;2023-04-01T16:35:23;12.18;;;3.45;;
58083;SDS011;43882;51.550;11.858;2023-04-01T16:37:53;15.40;;;5.35;;
58083;SDS011;43882;51.550;11.858;2023-04-01T16:40:43;16.80;;;6.70;;
58083;SDS011;43882;51.550;11.858;2023-04-01T16:48:52;20.42;;;13.20;;
58083;SDS011;43882;51.550;11.858;2023-04-01T16:51:24;19.25;;;11.05;;
58083;SDS011;43882;51.550;11.858;2023-04-01T16:54:14;18.75;;;9.30;;
58083;SDS011;43882;51.550;11.858;2023-04-01T16:56:50;16.63;;;6.68;;
58083;SDS011;43882;51.550;11.858;2023-04-01T16:59:29;16.88;;;6.28;;
58083;SDS011;43882;51.550;11.858;2023-04-01T17:02:04;16.92;;;5.90;;
58083;SDS011;43882;51.550;11.858;2023-04-01T17:18:31;14.15;;;4.10;;
58083;SDS011;43882;51.550;11.858;2023-04-01T17:21:09;14.52;;;4.65;;
58083;SDS011;43882;51.550;11.858;2023-04-01T17:23:43;17.13;;;5.30;;
58083;SDS011;43882;51.550;11.858;2023-04-01T17:28:45;15.88;;;5.32;;
58083;SDS011;43882;51.550;11.858;2023-04-01T17:31:33;15.30;;;4.78;;
58083;SDS011;43882;51.550;11.858;2023-04-01T17:37:03;16.17;;;5.47;;
58083;SDS011;43882;51.550;11.858;2023-04-01T17:42:16;14.48;;;4.30;;
58083;SDS011;43882;51.550;11.858;2023-04-01T17:53:22;17.70;;;5.88;;
58083;SDS011;43882;51.550;11.858;2023-04-01T17:56:04;15.85;;;5.70;;
58083;SDS011;43882;51.550;11.858;2023-04-01T18:04:02;18.00;;;5.63;;
58083;SDS011;43882;51.550;11.858;2023-04-01T18:09:23;16.70;;;4.82;;
58083;SDS011;43882;51.550;11.858;2023-04-01T18:17:24;16.02;;;5.40;;
58083;SDS011;43882;51.550;11.858;2023-04-01T18:19:55;16.58;;;5.20;;
58083;SDS011;43882;51.550;11.858;2023-04-01T18:25:33;14.65;;;4.75;;
58083;SDS011;43882;51.550;11.858;2023-04-01T18:28:16;12.68;;;3.40;;
58083;SDS011;43882;51.550;11.858;2023-04-01T18:30:56;12.05;;;3.03;;
58083;SDS011;43882;51.550;11.858;2023-04-01T18:33:30;13.73;;;3.42;;
58083;SDS011;43882;51.550;11.858;2023-04-01T18:38:50;13.68;;;3.60;;
58083;SDS011;43882;51.550;11.858;2023-04-01T18:41:30;13.88;;;3.30;;
58083;SDS011;43882;51.550;11.858;2023-04-01T18:44:31;14.77;;;3.80;;
58083;SDS011;43882;51.550;11.858;2023-04-01T18:52:19;14.98;;;3.92;;
58083;SDS011;43882;51.550;11.858;2023-04-01T19:00:19;14.75;;;4.38;;
58083;SDS011;43882;51.550;11.858;2023-04-01T19:02:58;14.75;;;4.35;;
58083;SDS011;43882;51.550;11.858;2023-04-01T19:05:36;15.45;;;4.38;;
58083;SDS011;43882;51.550;11.858;2023-04-01T19:08:18;15.38;;;4.18;;
58083;SDS011;43882;51.550;11.858;2023-04-01T19:10:57;16.25;;;4.60;;
58083;SDS011;43882;51.550;11.858;2023-04-01T19:13:46;15.02;;;4.70;;
58083;SDS011;43882;51.550;11.858;2023-04-01T19:29:27;15.57;;;4.22;;
58083;SDS011;43882;51.550;11.858;2023-04-01T19:32:24;15.88;;;4.68;;
58083;SDS011;43882;51.550;11.858;2023-04-01T19:38:09;16.88;;;4.97;;
58083;SDS011;43882;51.550;11.858;2023-04-01T19:44:03;16.25;;;4.75;;
58083;SDS011;43882;51.550;11.858;2023-04-01T19:54:25;16.05;;;4.78;;
58083;SDS011;43882;51.550;11.858;2023-04-01T19:57:05;14.63;;;4.72;;
58083;SDS011;43882;51.550;11.858;2023-04-01T20:05:39;16.85;;;5.80;;
58083;SDS011;43882;51.550;11.858;2023-04-01T20:11:21;17.15;;;5.30;;
58083;SDS011;43882;51.550;11.858;2023-04-01T20:14:03;17.48;;;5.40;;
58083;SDS011;43882;51.550;11.858;2023-04-01T20:16:40;17.67;;;5.50;;
58083;SDS011;43882;51.550;11.858;2023-04-01T20:19:09;16.17;;;5.13;;
58083;SDS011;43882;51.550;11.858;2023-04-01T20:21:36;17.92;;;5.35;;
58083;SDS011;43882;51.550;11.858;2023-04-01T20:26:50;17.00;;;5.75;;
58083;SDS011;43882;51.550;11.858;2023-04-01T20:29:35;17.40;;;5.68;;
58083;SDS011;43882;51.550;11.858;2023-04-01T20:37:32;17.50;;;5.47;;
58083;SDS011;43882;51.550;11.858;2023-04-01T20:40:31;17.38;;;5.05;;
58083;SDS011;43882;51.550;11.858;2023-04-01T20:51:29;16.58;;;4.95;;
58083;SDS011;43882;51.550;11.858;2023-04-01T21:02:16;16.35;;;4.85;;
58083;SDS011;43882;51.550;11.858;2023-04-01T21:07:41;16.13;;;4.50;;
58083;SDS011;43882;51.550;11.858;2023-04-01T21:13:02;16.88;;;5.35;;
58083;SDS011;43882;51.550;11.858;2023-04-01T21:15:48;17.75;;;5.93;;
58083;SDS011;43882;51.550;11.858;2023-04-01T21:21:12;17.60;;;5.32;;
58083;SDS011;43882;51.550;11.858;2023-04-01T21:24:04;16.90;;;5.28;;
58083;SDS011;43882;51.550;11.858;2023-04-01T21:26:42;18.27;;;5.38;;
58083;SDS011;43882;51.550;11.858;2023-04-01T21:37:06;18.08;;;5.60;;
58083;SDS011;43882;51.550;11.858;2023-04-01T21:42:55;17.40;;;6.10;;
58083;SDS011;43882;51.550;11.858;2023-04-01T21:48:37;19.75;;;6.63;;
58083;SDS011;43882;51.550;11.858;2023-04-01T21:56:32;21.65;;;7.55;;
58083;SDS011;43882;51.550;11.858;2023-04-01T22:05:04;17.95;;;5.97;;
58083;SDS011;43882;51.550;11.858;2023-04-01T22:07:38;19.65;;;6.88;;
58083;SDS011;43882;51.550;11.858;2023-04-01T22:13:06;21.02;;;7.25;;
58083;SDS011;43882;51.550;11.858;2023-04-01T22:18:31;21.17;;;7.90;;
58083;SDS011;43882;51.550;11.858;2023-04-01T22:21:18;22.08;;;8.02;;
58083;SDS011;43882;51.550;11.858;2023-04-01T22:23:56;22.10;;;8.45;;
58083;SDS011;43882;51.550;11.858;2023-04-01T22:26:32;22.88;;;8.60;;
58083;SDS011;43882;51.550;11.858;2023-04-01T22:32:11;22.92;;;8.55;;
58083;SDS011;43882;51.550;11.858;2023-04-01T22:34:59;23.08;;;8.20;;
58083;SDS011;43882;51.550;11.858;2023-04-01T22:37:40;23.42;;;9.88;;
58083;SDS011;43882;51.550;11.858;2023-04-01T22:43:00;25.60;;;9.88;;
58083;SDS011;43882;51.550;11.858;2023-04-01T22:50:50;20.67;;;7.22;;
58083;SDS011;43882;51.550;11.858;2023-04-01T22:56:13;20.25;;;7.47;;
58083;SDS011;43882;51.550;11.858;2023-04-01T23:01:41;22.88;;;8.32;;
58083;SDS011;43882;51.550;11.858;2023-04-01T23:04:11;22.38;;;8.60;;
58083;SDS011;43882;51.550;11.858;2023-04-01T23:06:46;21.75;;;8.25;;
58083;SDS011;43882;51.550;11.858;2023-04-01T23:09:15;20.42;;;7.47;;
58083;SDS011;43882;51.550;11.858;2023-04-01T23:11:51;21.42;;;7.93;;
58083;SDS011;43882;51.550;11.858;2023-04-01T23:22:23;20.35;;;7.20;;
58083;SDS011;43882;51.550;11.858;2023-04-01T23:27:40;20.08;;;6.90;;
58083;SDS011;43882;51.550;11.858;2023-04-01T23:33:21;21.57;;;7.10;;
58083;SDS011;43882;51.550;11.858;2023-04-01T23:35:59;18.23;;;6.15;;
58083;SDS011;43882;51.550;11.858;2023-04-01T23:38:31;18.85;;;6.72;;
58083;SDS011;43882;51.550;11.858;2023-04-01T23:41:07;21.55;;;7.03;;
58083;SDS011;43882;51.550;11.858;2023-04-01T23:43:36;19.00;;;6.90;;
58083;SDS011;43882;51.550;11.858;2023-04-01T23:46:03;19.80;;;6.93;;
58083;SDS011;43882;51.550;11.858;2023-04-01T23:48:42;18.60;;;6.20;;
58083;SDS011;43882;51.550;11.858;2023-04-01T23:51:23;19.73;;;6.75;;
58083;SDS011;43882;51.550;11.858;2023-04-01T23:56:41;20.75;;;7.65;;
58083;SDS011;43882;51.550;11.858;2023-04-01T23:59:17;19.00;;;6.22;;
